Terminal Aerodrome Forecast
Issued by NWS

Home | Current Version | Previous Version | Text Only | Print | Product List | Glossary On
Versions: 1 2 3 4 5 6 7 8 9 10 11 12 13 14 15 16
000
FTUS45 KTFX 211142
TAFCTB
TAF
KCTB 211142Z 2112/2212 VRB06KT P6SM BKN070 BKN250
     FM212100 15007KT 5SM -SHRASN OVC030
     FM220800 35005KT 2SM -SHSN SCT005 OVC010=

USA.gov is the U.S. government's official web portal to all federal, state and local government web resources and services.